EDT,Max TemperatureF,Mean TemperatureF,Min TemperatureF,Max Dew PointF,MeanDew PointF,Min DewpointF,Max Humidity, Mean Humidity, Min Humidity, Max Sea Level PressureIn, Mean Sea Level PressureIn, Min Sea Level PressureIn, Max VisibilityMiles, Mean VisibilityMiles, Min VisibilityMiles, Max Wind SpeedMPH, Mean Wind SpeedMPH, Max Gust SpeedMPH,PrecipitationIn, CloudCover, Events, WindDirDegrees
2012-10-1,66,57,50,52,49,46,89,74,61,29.94,29.78,29.70,10,10,10,18,9,24,0.00,5,,226
2012-10-2,72,64,55,59,55,50,90,81,53,30.08,30.03,29.94,10,9,5,8,3,,0.08,5,Rain,216
2012-10-3,64,62,60,61,59,57,94,89,84,30.19,30.12,30.06,10,3,1,8,2,,0.07,8,Rain,60
2012-10-4,63,60,59,59,58,57,94,90,82,30.19,30.13,30.06,10,4,0,8,3,,0.05,8,Fog-Rain,45
2012-10-5,77,68,59,59,57,54,94,80,45,30.05,30.00,29.92,10,5,0,7,2,,0.00,2,Fog,237
2012-10-6,79,66,54,61,55,43,90,70,46,29.94,29.82,29.69,10,10,5,17,7,28,0.01,2,Rain,233
2012-10-7,57,51,45,46,41,38,90,68,49,30.08,30.04,29.96,10,10,5,8,4,,0.20,4,Rain,226
2012-10-8,57,50,43,46,43,40,96,78,57,30.34,30.21,30.07,10,10,3,8,3,,0.05,4,Rain,297
2012-10-9,59,52,48,49,45,44,87,77,62,30.33,30.26,30.17,10,10,9,13,5,17,0.00,8,,51
2012-10-10,61,56,50,58,52,45,94,87,76,30.15,29.91,29.73,10,6,2,9,6,17,0.16,8,Rain,76
2012-10-11,59,52,44,46,35,30,77,57,35,30.14,30.04,29.81,10,10,2,18,11,26,0.00,1,,253
2012-10-12,54,46,36,40,32,21,79,62,35,30.38,30.13,30.01,10,10,6,17,7,24,0.04,2,Rain,278
2012-10-13,54,42,30,30,24,22,79,50,29,30.48,30.41,30.34,10,10,10,9,5,17,0.00,1,,257
2012-10-14,64,54,45,54,48,31,89,78,54,30.31,30.10,29.95,10,9,3,10,5,17,0.56,6,Rain,201
2012-10-15,78,68,59,59,58,53,90,74,54,29.93,29.73,29.62,10,9,2,15,8,25,0.07,3,Rain,204
2012-10-16,61,50,39,59,44,33,90,69,42,29.91,29.68,29.58,10,8,2,18,8,32,0.27,5,Rain,287
2012-10-17,63,49,36,40,35,29,83,64,30,30.03,29.96,29.91,10,10,10,7,1,,0.00,0,,268
2012-10-18,66,52,39,48,42,37,93,77,40,30.15,30.10,30.03,10,8,0,9,1,,0.00,2,Fog,91
2012-10-19,66,57,48,64,55,46,94,86,63,30.12,29.95,29.75,10,6,2,15,6,28,0.16,7,Rain,91
2012-10-20,75,68,57,64,60,43,94,80,41,29.78,29.70,29.62,10,8,2,12,4,,0.64,5,Rain-Thunderstorm,187
2012-10-21,64,55,46,41,40,37,77,57,37,29.89,29.84,29.76,10,10,10,16,8,25,0.00,2,,248
2012-10-22,64,55,46,42,40,37,77,57,37,30.02,29.93,29.88,10,10,10,16,7,25,0.00,0,,270
2012-10-23,64,54,45,42,39,37,80,59,38,30.14,30.08,30.02,10,10,10,12,4,17,0.00,0,,327
2012-10-24,60,50,41,40,36,31,86,62,38,30.24,30.20,30.16,10,10,10,6,2,,0.00,4,,112
2012-10-25,64,51,39,47,41,36,89,72,37,30.34,30.29,30.25,10,10,10,9,2,,0.00,1,,71
2012-10-26,68,55,44,52,46,41,93,75,59,30.27,30.21,30.14,10,10,8,8,1,,0.00,1,,204
2012-10-27,66,55,44,52,47,42,93,81,59,30.13,30.08,30.04,10,8,1,8,2,,0.00,2,,61
2012-10-28,55,52,50,50,48,44,89,83,74,30.04,29.97,29.82,10,6,1,18,10,28,0.02,7,Rain,39
2012-10-29,57,54,51,55,52,48,94,89,86,29.82,29.63,29.38,7,3,1,34,20,61,0.44,8,Rain,53
2012-10-30,,,,,,,,,,,,,,,,,,,,,,
2012-10-31,57,,48,40,40,40,71,71,71,29.58,29.58,29.58,10,10,10,5,5,,0.00,1,,200